sensor_id;sensor_type;location;lat;lon;timestamp;P1;durP1;ratioP1;P2;durP2;ratioP2
49039;SDS011;36811;49.732;13.402;2022-11-20T00:01:15;51.33;;;26.73;;
49039;SDS011;36811;49.732;13.402;2022-11-20T00:03:44;56.13;;;29.48;;
49039;SDS011;36811;49.732;13.402;2022-11-20T00:06:12;49.53;;;27.10;;
49039;SDS011;36811;49.732;13.402;2022-11-20T00:08:42;55.97;;;29.80;;
49039;SDS011;36811;49.732;13.402;2022-11-20T00:11:09;48.45;;;24.55;;
49039;SDS011;36811;49.732;13.402;2022-11-20T00:13:38;50.08;;;25.90;;
49039;SDS011;36811;49.732;13.402;2022-11-20T00:16:05;50.42;;;26.55;;
49039;SDS011;36811;49.732;13.402;2022-11-20T00:18:33;62.15;;;30.58;;
49039;SDS011;36811;49.732;13.402;2022-11-20T00:21:04;62.55;;;31.75;;
49039;SDS011;36811;49.732;13.402;2022-11-20T00:23:31;48.15;;;25.65;;
49039;SDS011;36811;49.732;13.402;2022-11-20T00:26:01;51.17;;;26.20;;
49039;SDS011;36811;49.732;13.402;2022-11-20T00:28:28;50.95;;;25.33;;
49039;SDS011;36811;49.732;13.402;2022-11-20T00:30:59;46.70;;;25.83;;
49039;SDS011;36811;49.732;13.402;2022-11-20T00:33:27;53.83;;;28.20;;
49039;SDS011;36811;49.732;13.402;2022-11-20T00:35:58;55.83;;;27.33;;
49039;SDS011;36811;49.732;13.402;2022-11-20T00:38:27;47.80;;;25.02;;
49039;SDS011;36811;49.732;13.402;2022-11-20T00:41:00;48.22;;;25.67;;
49039;SDS011;36811;49.732;13.402;2022-11-20T00:43:27;54.20;;;25.10;;
49039;SDS011;36811;49.732;13.402;2022-11-20T00:46:00;51.67;;;25.65;;
49039;SDS011;36811;49.732;13.402;2022-11-20T00:48:34;53.20;;;27.35;;
49039;SDS011;36811;49.732;13.402;2022-11-20T00:51:00;50.63;;;26.70;;
49039;SDS011;36811;49.732;13.402;2022-11-20T00:53:26;53.20;;;28.38;;
49039;SDS011;36811;49.732;13.402;2022-11-20T00:55:56;54.95;;;28.13;;
49039;SDS011;36811;49.732;13.402;2022-11-20T00:58:25;49.88;;;27.42;;
49039;SDS011;36811;49.732;13.402;2022-11-20T01:03:32;47.97;;;26.73;;
49039;SDS011;36811;49.732;13.402;2022-11-20T01:06:00;52.65;;;29.65;;
49039;SDS011;36811;49.732;13.402;2022-11-20T01:08:31;49.05;;;29.00;;
49039;SDS011;36811;49.732;13.402;2022-11-20T01:10:59;51.53;;;24.33;;
49039;SDS011;36811;49.732;13.402;2022-11-20T01:13:30;51.85;;;28.38;;
49039;SDS011;36811;49.732;13.402;2022-11-20T01:16:09;53.47;;;32.17;;
49039;SDS011;36811;49.732;13.402;2022-11-20T01:18:41;51.90;;;25.88;;
49039;SDS011;36811;49.732;13.402;2022-11-20T01:21:09;49.20;;;25.92;;
49039;SDS011;36811;49.732;13.402;2022-11-20T01:23:38;54.22;;;26.17;;
49039;SDS011;36811;49.732;13.402;2022-11-20T01:26:07;51.65;;;25.85;;
49039;SDS011;36811;49.732;13.402;2022-11-20T01:28:35;55.92;;;27.70;;
49039;SDS011;36811;49.732;13.402;2022-11-20T01:31:01;51.63;;;30.13;;
49039;SDS011;36811;49.732;13.402;2022-11-20T01:33:36;57.37;;;29.23;;
49039;SDS011;36811;49.732;13.402;2022-11-20T01:36:03;56.70;;;30.23;;
49039;SDS011;36811;49.732;13.402;2022-11-20T01:38:30;49.70;;;27.83;;
49039;SDS011;36811;49.732;13.402;2022-11-20T01:40:56;50.40;;;27.65;;
49039;SDS011;36811;49.732;13.402;2022-11-20T01:43:22;52.75;;;27.08;;
49039;SDS011;36811;49.732;13.402;2022-11-20T01:46:00;54.55;;;27.27;;
49039;SDS011;36811;49.732;13.402;2022-11-20T01:50:55;57.47;;;27.98;;
49039;SDS011;36811;49.732;13.402;2022-11-20T01:53:24;56.47;;;28.35;;
49039;SDS011;36811;49.732;13.402;2022-11-20T01:55:54;54.35;;;30.38;;
49039;SDS011;36811;49.732;13.402;2022-11-20T01:58:23;51.33;;;25.50;;
49039;SDS011;36811;49.732;13.402;2022-11-20T02:00:59;48.30;;;26.00;;
49039;SDS011;36811;49.732;13.402;2022-11-20T02:03:24;51.55;;;25.52;;
49039;SDS011;36811;49.732;13.402;2022-11-20T02:05:55;54.35;;;25.10;;
49039;SDS011;36811;49.732;13.402;2022-11-20T02:08:28;49.53;;;25.58;;
49039;SDS011;36811;49.732;13.402;2022-11-20T02:10:55;53.83;;;27.05;;
49039;SDS011;36811;49.732;13.402;2022-11-20T02:13:21;46.25;;;24.00;;
49039;SDS011;36811;49.732;13.402;2022-11-20T02:16:08;49.33;;;26.67;;
49039;SDS011;36811;49.732;13.402;2022-11-20T02:18:37;49.45;;;27.33;;
49039;SDS011;36811;49.732;13.402;2022-11-20T02:21:06;50.42;;;26.15;;
49039;SDS011;36811;49.732;13.402;2022-11-20T02:24:01;51.88;;;26.50;;
49039;SDS011;36811;49.732;13.402;2022-11-20T02:26:28;53.63;;;28.42;;
49039;SDS011;36811;49.732;13.402;2022-11-20T02:28:58;49.33;;;27.70;;
49039;SDS011;36811;49.732;13.402;2022-11-20T02:31:25;51.55;;;29.40;;
49039;SDS011;36811;49.732;13.402;2022-11-20T02:33:55;55.13;;;27.90;;
49039;SDS011;36811;49.732;13.402;2022-11-20T02:36:21;55.15;;;28.42;;
49039;SDS011;36811;49.732;13.402;2022-11-20T02:38:49;42.20;;;24.58;;
49039;SDS011;36811;49.732;13.402;2022-11-20T02:41:15;51.63;;;26.35;;
49039;SDS011;36811;49.732;13.402;2022-11-20T02:43:40;48.13;;;25.70;;
49039;SDS011;36811;49.732;13.402;2022-11-20T02:46:06;62.90;;;29.27;;
49039;SDS011;36811;49.732;13.402;2022-11-20T02:48:33;60.53;;;33.13;;
49039;SDS011;36811;49.732;13.402;2022-11-20T02:50:59;55.53;;;26.52;;
49039;SDS011;36811;49.732;13.402;2022-11-20T02:53:25;50.88;;;28.05;;
49039;SDS011;36811;49.732;13.402;2022-11-20T02:55:50;52.03;;;28.95;;
49039;SDS011;36811;49.732;13.402;2022-11-20T02:58:16;57.08;;;29.92;;
49039;SDS011;36811;49.732;13.402;2022-11-20T03:00:41;55.85;;;31.25;;
49039;SDS011;36811;49.732;13.402;2022-11-20T03:03:07;53.83;;;28.58;;
49039;SDS011;36811;49.732;13.402;2022-11-20T03:05:32;49.95;;;27.85;;
49039;SDS011;36811;49.732;13.402;2022-11-20T03:07:58;58.15;;;30.10;;
49039;SDS011;36811;49.732;13.402;2022-11-20T03:10:24;61.13;;;32.05;;
49039;SDS011;36811;49.732;13.402;2022-11-20T03:12:53;50.92;;;26.65;;
49039;SDS011;36811;49.732;13.402;2022-11-20T03:15:21;62.42;;;30.77;;
49039;SDS011;36811;49.732;13.402;2022-11-20T03:17:52;62.30;;;31.70;;
49039;SDS011;36811;49.732;13.402;2022-11-20T03:20:20;54.53;;;29.58;;
49039;SDS011;36811;49.732;13.402;2022-11-20T03:22:45;59.08;;;32.05;;
49039;SDS011;36811;49.732;13.402;2022-11-20T03:25:11;62.13;;;29.83;;
49039;SDS011;36811;49.732;13.402;2022-11-20T03:27:36;60.72;;;32.90;;
49039;SDS011;36811;49.732;13.402;2022-11-20T03:30:02;61.25;;;29.80;;
49039;SDS011;36811;49.732;13.402;2022-11-20T03:32:29;67.97;;;34.92;;
49039;SDS011;36811;49.732;13.402;2022-11-20T03:34:54;60.47;;;30.77;;
49039;SDS011;36811;49.732;13.402;2022-11-20T03:37:20;57.55;;;30.35;;
49039;SDS011;36811;49.732;13.402;2022-11-20T03:39:45;68.80;;;34.95;;
49039;SDS011;36811;49.732;13.402;2022-11-20T03:42:11;58.10;;;30.02;;
49039;SDS011;36811;49.732;13.402;2022-11-20T03:44:55;55.38;;;30.15;;
49039;SDS011;36811;49.732;13.402;2022-11-20T03:47:20;60.08;;;30.70;;
49039;SDS011;36811;49.732;13.402;2022-11-20T03:49:46;65.60;;;30.83;;
49039;SDS011;36811;49.732;13.402;2022-11-20T03:52:12;71.80;;;31.38;;
49039;SDS011;36811;49.732;13.402;2022-11-20T03:54:37;66.65;;;29.27;;
49039;SDS011;36811;49.732;13.402;2022-11-20T03:57:03;67.78;;;29.55;;
49039;SDS011;36811;49.732;13.402;2022-11-20T03:59:28;67.63;;;29.23;;
49039;SDS011;36811;49.732;13.402;2022-11-20T04:01:54;73.47;;;32.38;;
49039;SDS011;36811;49.732;13.402;2022-11-20T04:04:20;63.70;;;33.70;;
49039;SDS011;36811;49.732;13.402;2022-11-20T04:06:45;62.63;;;30.42;;
49039;SDS011;36811;49.732;13.402;2022-11-20T04:09:11;62.60;;;28.65;;
49039;SDS011;36811;49.732;13.402;2022-11-20T04:11:37;70.38;;;30.70;;
49039;SDS011;36811;49.732;13.402;2022-11-20T04:14:05;62.40;;;29.42;;
49039;SDS011;36811;49.732;13.402;2022-11-20T04:16:37;58.88;;;31.80;;
49039;SDS011;36811;49.732;13.402;2022-11-20T04:19:04;67.13;;;28.60;;
49039;SDS011;36811;49.732;13.402;2022-11-20T04:21:32;61.30;;;29.75;;
49039;SDS011;36811;49.732;13.402;2022-11-20T04:23:58;66.68;;;30.15;;
49039;SDS011;36811;49.732;13.402;2022-11-20T04:26:25;59.90;;;28.83;;
49039;SDS011;36811;49.732;13.402;2022-11-20T04:28:52;59.28;;;28.63;;
49039;SDS011;36811;49.732;13.402;2022-11-20T04:31:23;54.45;;;27.98;;
49039;SDS011;36811;49.732;13.402;2022-11-20T04:33:50;58.50;;;28.95;;
49039;SDS011;36811;49.732;13.402;2022-11-20T04:36:18;69.60;;;34.20;;
49039;SDS011;36811;49.732;13.402;2022-11-20T04:38:54;67.05;;;32.72;;
49039;SDS011;36811;49.732;13.402;2022-11-20T04:41:22;66.07;;;32.13;;
49039;SDS011;36811;49.732;13.402;2022-11-20T04:43:51;77.90;;;31.77;;
49039;SDS011;36811;49.732;13.402;2022-11-20T04:46:18;88.50;;;41.83;;
49039;SDS011;36811;49.732;13.402;2022-11-20T04:48:45;73.63;;;33.35;;
49039;SDS011;36811;49.732;13.402;2022-11-20T04:51:12;71.75;;;31.95;;
49039;SDS011;36811;49.732;13.402;2022-11-20T04:53:38;65.97;;;30.20;;
49039;SDS011;36811;49.732;13.402;2022-11-20T04:56:05;73.57;;;32.45;;
49039;SDS011;36811;49.732;13.402;2022-11-20T04:58:33;71.95;;;39.47;;
49039;SDS011;36811;49.732;13.402;2022-11-20T05:01:02;81.10;;;35.40;;
49039;SDS011;36811;49.732;13.402;2022-11-20T05:03:33;71.10;;;34.35;;
49039;SDS011;36811;49.732;13.402;2022-11-20T05:06:02;55.65;;;28.65;;
49039;SDS011;36811;49.732;13.402;2022-11-20T05:08:30;65.53;;;30.58;;
49039;SDS011;36811;49.732;13.402;2022-11-20T05:11:03;71.65;;;36.40;;
49039;SDS011;36811;49.732;13.402;2022-11-20T05:13:36;73.55;;;32.42;;
49039;SDS011;36811;49.732;13.402;2022-11-20T05:16:07;81.88;;;32.03;;
49039;SDS011;36811;49.732;13.402;2022-11-20T05:18:37;74.18;;;34.05;;
49039;SDS011;36811;49.732;13.402;2022-11-20T05:21:04;81.20;;;35.90;;
49039;SDS011;36811;49.732;13.402;2022-11-20T05:23:31;74.93;;;34.00;;
49039;SDS011;36811;49.732;13.402;2022-11-20T05:25:58;81.95;;;33.25;;
49039;SDS011;36811;49.732;13.402;2022-11-20T05:28:24;89.30;;;34.13;;
49039;SDS011;36811;49.732;13.402;2022-11-20T05:30:51;76.40;;;33.22;;
49039;SDS011;36811;49.732;13.402;2022-11-20T05:33:17;73.28;;;32.80;;
49039;SDS011;36811;49.732;13.402;2022-11-20T05:35:43;86.03;;;35.13;;
49039;SDS011;36811;49.732;13.402;2022-11-20T05:38:09;84.53;;;37.03;;
49039;SDS011;36811;49.732;13.402;2022-11-20T05:40:34;87.28;;;35.63;;
49039;SDS011;36811;49.732;13.402;2022-11-20T05:43:00;92.53;;;35.80;;
49039;SDS011;36811;49.732;13.402;2022-11-20T05:45:26;91.18;;;33.70;;
49039;SDS011;36811;49.732;13.402;2022-11-20T05:47:52;115.88;;;37.47;;
49039;SDS011;36811;49.732;13.402;2022-11-20T05:50:18;98.35;;;37.40;;
49039;SDS011;36811;49.732;13.402;2022-11-20T05:52:44;99.88;;;36.70;;
49039;SDS011;36811;49.732;13.402;2022-11-20T05:55:09;96.63;;;34.97;;
49039;SDS011;36811;49.732;13.402;2022-11-20T05:57:35;103.13;;;38.50;;
49039;SDS011;36811;49.732;13.402;2022-11-20T06:00:01;90.68;;;34.65;;
49039;SDS011;36811;49.732;13.402;2022-11-20T06:02:28;92.38;;;35.83;;
49039;SDS011;36811;49.732;13.402;2022-11-20T06:04:54;106.18;;;35.90;;
49039;SDS011;36811;49.732;13.402;2022-11-20T06:07:19;96.28;;;36.10;;
49039;SDS011;36811;49.732;13.402;2022-11-20T06:09:45;96.13;;;37.15;;
49039;SDS011;36811;49.732;13.402;2022-11-20T06:12:10;101.93;;;35.88;;
49039;SDS011;36811;49.732;13.402;2022-11-20T06:14:36;102.32;;;38.05;;
49039;SDS011;36811;49.732;13.402;2022-11-20T06:17:01;90.07;;;35.47;;
49039;SDS011;36811;49.732;13.402;2022-11-20T06:19:27;98.85;;;34.42;;
49039;SDS011;36811;49.732;13.402;2022-11-20T06:21:53;94.57;;;38.47;;
49039;SDS011;36811;49.732;13.402;2022-11-20T06:24:18;97.40;;;38.63;;
49039;SDS011;36811;49.732;13.402;2022-11-20T06:26:44;110.07;;;38.83;;
49039;SDS011;36811;49.732;13.402;2022-11-20T06:29:10;92.57;;;35.00;;
49039;SDS011;36811;49.732;13.402;2022-11-20T06:31:35;105.03;;;37.63;;
49039;SDS011;36811;49.732;13.402;2022-11-20T06:34:03;97.20;;;33.55;;
49039;SDS011;36811;49.732;13.402;2022-11-20T06:36:31;97.90;;;35.90;;
49039;SDS011;36811;49.732;13.402;2022-11-20T06:38:57;101.85;;;39.60;;
49039;SDS011;36811;49.732;13.402;2022-11-20T06:41:23;108.90;;;37.40;;
49039;SDS011;36811;49.732;13.402;2022-11-20T06:43:48;105.63;;;40.05;;
49039;SDS011;36811;49.732;13.402;2022-11-20T06:46:15;121.88;;;40.35;;
49039;SDS011;36811;49.732;13.402;2022-11-20T06:48:44;120.78;;;39.15;;
49039;SDS011;36811;49.732;13.402;2022-11-20T06:51:11;124.43;;;39.20;;
49039;SDS011;36811;49.732;13.402;2022-11-20T06:53:38;116.13;;;36.70;;
49039;SDS011;36811;49.732;13.402;2022-11-20T06:56:04;113.03;;;39.65;;
49039;SDS011;36811;49.732;13.402;2022-11-20T06:58:31;92.93;;;35.67;;
49039;SDS011;36811;49.732;13.402;2022-11-20T07:01:20;93.78;;;36.50;;
49039;SDS011;36811;49.732;13.402;2022-11-20T07:03:44;83.88;;;33.72;;
49039;SDS011;36811;49.732;13.402;2022-11-20T07:06:10;99.90;;;35.90;;
49039;SDS011;36811;49.732;13.402;2022-11-20T07:08:36;83.55;;;35.00;;
49039;SDS011;36811;49.732;13.402;2022-11-20T07:11:03;80.53;;;32.72;;
49039;SDS011;36811;49.732;13.402;2022-11-20T07:13:31;88.25;;;32.50;;
49039;SDS011;36811;49.732;13.402;2022-11-20T07:16:02;91.47;;;36.03;;
49039;SDS011;36811;49.732;13.402;2022-11-20T07:18:29;73.85;;;30.83;;
49039;SDS011;36811;49.732;13.402;2022-11-20T07:20:55;88.10;;;35.47;;
49039;SDS011;36811;49.732;13.402;2022-11-20T07:23:21;72.95;;;34.42;;
49039;SDS011;36811;49.732;13.402;2022-11-20T07:25:47;84.80;;;36.03;;
49039;SDS011;36811;49.732;13.402;2022-11-20T07:28:12;80.15;;;31.40;;
49039;SDS011;36811;49.732;13.402;2022-11-20T07:30:38;85.60;;;32.17;;
49039;SDS011;36811;49.732;13.402;2022-11-20T07:33:04;104.32;;;35.08;;
49039;SDS011;36811;49.732;13.402;2022-11-20T07:35:30;94.13;;;37.95;;
49039;SDS011;36811;49.732;13.402;2022-11-20T07:37:55;90.95;;;38.40;;
49039;SDS011;36811;49.732;13.402;2022-11-20T07:40:21;90.95;;;37.80;;
49039;SDS011;36811;49.732;13.402;2022-11-20T07:42:50;89.50;;;36.08;;
49039;SDS011;36811;49.732;13.402;2022-11-20T07:45:17;78.00;;;36.08;;
49039;SDS011;36811;49.732;13.402;2022-11-20T07:47:44;89.78;;;38.05;;
49039;SDS011;36811;49.732;13.402;2022-11-20T07:50:09;87.32;;;37.85;;
49039;SDS011;36811;49.732;13.402;2022-11-20T07:52:36;99.82;;;42.15;;
49039;SDS011;36811;49.732;13.402;2022-11-20T07:55:01;92.63;;;41.17;;
49039;SDS011;36811;49.732;13.402;2022-11-20T07:57:27;81.50;;;35.03;;
49039;SDS011;36811;49.732;13.402;2022-11-20T07:59:52;92.20;;;36.70;;
49039;SDS011;36811;49.732;13.402;2022-11-20T08:02:18;80.20;;;39.38;;
49039;SDS011;36811;49.732;13.402;2022-11-20T08:04:44;101.85;;;43.13;;
49039;SDS011;36811;49.732;13.402;2022-11-20T08:07:09;102.85;;;46.10;;
49039;SDS011;36811;49.732;13.402;2022-11-20T08:09:35;88.15;;;38.67;;
49039;SDS011;36811;49.732;13.402;2022-11-20T08:12:00;88.10;;;41.70;;
49039;SDS011;36811;49.732;13.402;2022-11-20T08:14:44;81.80;;;36.33;;
49039;SDS011;36811;49.732;13.402;2022-11-20T08:17:09;82.80;;;36.75;;
49039;SDS011;36811;49.732;13.402;2022-11-20T08:19:35;70.88;;;33.80;;
49039;SDS011;36811;49.732;13.402;2022-11-20T08:22:01;70.72;;;33.30;;
49039;SDS011;36811;49.732;13.402;2022-11-20T08:24:26;86.13;;;41.40;;
49039;SDS011;36811;49.732;13.402;2022-11-20T08:26:52;79.50;;;35.30;;
49039;SDS011;36811;49.732;13.402;2022-11-20T08:29:18;73.53;;;34.00;;
49039;SDS011;36811;49.732;13.402;2022-11-20T08:31:43;75.30;;;33.08;;
49039;SDS011;36811;49.732;13.402;2022-11-20T08:34:09;84.60;;;39.42;;
49039;SDS011;36811;49.732;13.402;2022-11-20T08:36:35;72.85;;;33.28;;
49039;SDS011;36811;49.732;13.402;2022-11-20T08:39:02;67.50;;;34.90;;
49039;SDS011;36811;49.732;13.402;2022-11-20T08:41:28;80.07;;;35.95;;
49039;SDS011;36811;49.732;13.402;2022-11-20T08:43:59;64.80;;;35.10;;
49039;SDS011;36811;49.732;13.402;2022-11-20T08:46:36;68.15;;;35.55;;
49039;SDS011;36811;49.732;13.402;2022-11-20T08:49:05;72.13;;;35.00;;
49039;SDS011;36811;49.732;13.402;2022-11-20T08:51:32;78.75;;;39.78;;
49039;SDS011;36811;49.732;13.402;2022-11-20T08:53:58;61.30;;;33.33;;
49039;SDS011;36811;49.732;13.402;2022-11-20T08:56:24;65.05;;;32.53;;
49039;SDS011;36811;49.732;13.402;2022-11-20T08:58:50;67.85;;;36.17;;
49039;SDS011;36811;49.732;13.402;2022-11-20T09:01:17;70.45;;;34.63;;
49039;SDS011;36811;49.732;13.402;2022-11-20T09:03:44;80.43;;;38.72;;
49039;SDS011;36811;49.732;13.402;2022-11-20T09:06:09;96.60;;;45.65;;
49039;SDS011;36811;49.732;13.402;2022-11-20T09:08:35;82.10;;;40.03;;
49039;SDS011;36811;49.732;13.402;2022-11-20T09:11:01;83.68;;;41.08;;
49039;SDS011;36811;49.732;13.402;2022-11-20T09:13:28;95.90;;;43.85;;
49039;SDS011;36811;49.732;13.402;2022-11-20T09:15:58;83.72;;;36.67;;
49039;SDS011;36811;49.732;13.402;2022-11-20T09:18:26;92.20;;;46.83;;
49039;SDS011;36811;49.732;13.402;2022-11-20T09:20:57;72.75;;;34.08;;
49039;SDS011;36811;49.732;13.402;2022-11-20T09:23:24;80.68;;;34.60;;
49039;SDS011;36811;49.732;13.402;2022-11-20T09:25:51;92.53;;;39.83;;
49039;SDS011;36811;49.732;13.402;2022-11-20T09:28:18;72.57;;;37.30;;
49039;SDS011;36811;49.732;13.402;2022-11-20T09:30:44;68.80;;;34.95;;
49039;SDS011;36811;49.732;13.402;2022-11-20T09:33:10;76.53;;;34.05;;
49039;SDS011;36811;49.732;13.402;2022-11-20T09:35:35;80.30;;;36.78;;
49039;SDS011;36811;49.732;13.402;2022-11-20T09:38:05;79.32;;;38.08;;
49039;SDS011;36811;49.732;13.402;2022-11-20T09:40:31;83.00;;;40.83;;
49039;SDS011;36811;49.732;13.402;2022-11-20T09:51:13;88.97;;;36.53;;
49039;SDS011;36811;49.732;13.402;2022-11-20T09:57:01;76.13;;;34.38;;
49039;SDS011;36811;49.732;13.402;2022-11-20T10:00:04;78.43;;;36.88;;
49039;SDS011;36811;49.732;13.402;2022-11-20T10:02:28;97.70;;;39.40;;
49039;SDS011;36811;49.732;13.402;2022-11-20T10:05:04;87.63;;;41.03;;
49039;SDS011;36811;49.732;13.402;2022-11-20T10:07:47;85.63;;;36.97;;
49039;SDS011;36811;49.732;13.402;2022-11-20T10:18:39;73.93;;;39.47;;
49039;SDS011;36811;49.732;13.402;2022-11-20T10:29:19;77.75;;;35.40;;
49039;SDS011;36811;49.732;13.402;2022-11-20T10:31:54;99.40;;;43.38;;
49039;SDS011;36811;49.732;13.402;2022-11-20T10:37:25;91.25;;;42.20;;
49039;SDS011;36811;49.732;13.402;2022-11-20T10:42:46;96.03;;;44.72;;
49039;SDS011;36811;49.732;13.402;2022-11-20T10:47:56;96.00;;;45.92;;
49039;SDS011;36811;49.732;13.402;2022-11-20T10:50:36;88.95;;;41.25;;
49039;SDS011;36811;49.732;13.402;2022-11-20T10:55:54;97.28;;;43.72;;
49039;SDS011;36811;49.732;13.402;2022-11-20T10:58:44;88.57;;;43.58;;
49039;SDS011;36811;49.732;13.402;2022-11-20T11:01:19;86.22;;;40.38;;
49039;SDS011;36811;49.732;13.402;2022-11-20T11:03:48;91.78;;;43.33;;
49039;SDS011;36811;49.732;13.402;2022-11-20T11:09:00;99.15;;;47.38;;
49039;SDS011;36811;49.732;13.402;2022-11-20T11:11:34;88.20;;;43.35;;
49039;SDS011;36811;49.732;13.402;2022-11-20T11:14:10;84.10;;;41.40;;
49039;SDS011;36811;49.732;13.402;2022-11-20T11:16:48;85.90;;;41.30;;
49039;SDS011;36811;49.732;13.402;2022-11-20T11:19:16;93.13;;;45.50;;
49039;SDS011;36811;49.732;13.402;2022-11-20T11:21:46;94.53;;;44.42;;
49039;SDS011;36811;49.732;13.402;2022-11-20T11:24:19;87.35;;;42.05;;
49039;SDS011;36811;49.732;13.402;2022-11-20T11:26:53;84.50;;;42.35;;
49039;SDS011;36811;49.732;13.402;2022-11-20T11:29:23;86.68;;;42.55;;
49039;SDS011;36811;49.732;13.402;2022-11-20T11:32:02;94.28;;;44.25;;
49039;SDS011;36811;49.732;13.402;2022-11-20T11:34:30;106.55;;;44.97;;
49039;SDS011;36811;49.732;13.402;2022-11-20T11:36:57;81.38;;;41.00;;
49039;SDS011;36811;49.732;13.402;2022-11-20T11:39:26;99.95;;;48.35;;
49039;SDS011;36811;49.732;13.402;2022-11-20T11:41:54;94.28;;;44.85;;
49039;SDS011;36811;49.732;13.402;2022-11-20T11:47:23;85.65;;;41.22;;
49039;SDS011;36811;49.732;13.402;2022-11-20T11:50:13;88.57;;;42.53;;
49039;SDS011;36811;49.732;13.402;2022-11-20T11:52:56;95.72;;;51.45;;
49039;SDS011;36811;49.732;13.402;2022-11-20T11:55:43;94.60;;;41.67;;
49039;SDS011;36811;49.732;13.402;2022-11-20T12:04:15;88.68;;;43.08;;
49039;SDS011;36811;49.732;13.402;2022-11-20T12:06:45;79.93;;;41.55;;
49039;SDS011;36811;49.732;13.402;2022-11-20T12:09:17;90.55;;;40.63;;
49039;SDS011;36811;49.732;13.402;2022-11-20T12:12:04;116.78;;;50.00;;
49039;SDS011;36811;49.732;13.402;2022-11-20T12:14:40;122.20;;;47.70;;
49039;SDS011;36811;49.732;13.402;2022-11-20T12:17:11;129.90;;;52.13;;
49039;SDS011;36811;49.732;13.402;2022-11-20T12:19:38;152.00;;;61.03;;
49039;SDS011;36811;49.732;13.402;2022-11-20T12:22:26;154.63;;;55.35;;
49039;SDS011;36811;49.732;13.402;2022-11-20T12:30:42;135.63;;;45.10;;
49039;SDS011;36811;49.732;13.402;2022-11-20T12:38:58;122.63;;;44.45;;
49039;SDS011;36811;49.732;13.402;2022-11-20T12:48:34;120.80;;;43.90;;
49039;SDS011;36811;49.732;13.402;2022-11-20T12:54:05;113.43;;;46.10;;
49039;SDS011;36811;49.732;13.402;2022-11-20T13:00:19;118.78;;;46.70;;
49039;SDS011;36811;49.732;13.402;2022-11-20T13:02:33;89.63;;;38.83;;
49039;SDS011;36811;49.732;13.402;2022-11-20T13:05:20;101.88;;;41.30;;
49039;SDS011;36811;49.732;13.402;2022-11-20T13:07:53;95.93;;;41.10;;
49039;SDS011;36811;49.732;13.402;2022-11-20T13:13:25;93.07;;;42.75;;
49039;SDS011;36811;49.732;13.402;2022-11-20T13:16:08;101.93;;;43.88;;
49039;SDS011;36811;49.732;13.402;2022-11-20T13:18:52;82.40;;;36.00;;
49039;SDS011;36811;49.732;13.402;2022-11-20T13:21:20;74.80;;;35.72;;
49039;SDS011;36811;49.732;13.402;2022-11-20T13:23:48;74.47;;;34.70;;
49039;SDS011;36811;49.732;13.402;2022-11-20T13:26:19;94.57;;;41.65;;
49039;SDS011;36811;49.732;13.402;2022-11-20T13:28:47;83.35;;;38.67;;
49039;SDS011;36811;49.732;13.402;2022-11-20T13:31:29;111.90;;;46.65;;
49039;SDS011;36811;49.732;13.402;2022-11-20T13:33:57;83.57;;;41.05;;
49039;SDS011;36811;49.732;13.402;2022-11-20T13:36:26;88.03;;;38.63;;
49039;SDS011;36811;49.732;13.402;2022-11-20T13:38:54;75.95;;;37.50;;
49039;SDS011;36811;49.732;13.402;2022-11-20T13:44:10;65.47;;;33.80;;
49039;SDS011;36811;49.732;13.402;2022-11-20T13:46:41;83.80;;;40.35;;
49039;SDS011;36811;49.732;13.402;2022-11-20T13:49:10;86.63;;;38.75;;
49039;SDS011;36811;49.732;13.402;2022-11-20T13:55:16;88.43;;;38.72;;
49039;SDS011;36811;49.732;13.402;2022-11-20T14:00:52;91.57;;;44.10;;
49039;SDS011;36811;49.732;13.402;2022-11-20T14:03:24;84.57;;;36.33;;
49039;SDS011;36811;49.732;13.402;2022-11-20T14:05:59;97.57;;;46.90;;
49039;SDS011;36811;49.732;13.402;2022-11-20T14:08:31;79.38;;;41.30;;
49039;SDS011;36811;49.732;13.402;2022-11-20T14:13:51;76.60;;;36.50;;
49039;SDS011;36811;49.732;13.402;2022-11-20T14:16:23;66.78;;;34.30;;
49039;SDS011;36811;49.732;13.402;2022-11-20T14:18:50;56.85;;;29.90;;
49039;SDS011;36811;49.732;13.402;2022-11-20T14:21:22;62.53;;;32.30;;
49039;SDS011;36811;49.732;13.402;2022-11-20T14:23:53;65.18;;;33.47;;
49039;SDS011;36811;49.732;13.402;2022-11-20T14:26:28;67.30;;;32.30;;
49039;SDS011;36811;49.732;13.402;2022-11-20T14:28:53;64.40;;;34.08;;
49039;SDS011;36811;49.732;13.402;2022-11-20T14:31:25;66.32;;;32.58;;
49039;SDS011;36811;49.732;13.402;2022-11-20T14:33:53;60.67;;;28.90;;
49039;SDS011;36811;49.732;13.402;2022-11-20T14:36:21;84.82;;;39.35;;
49039;SDS011;36811;49.732;13.402;2022-11-20T14:38:50;71.85;;;36.60;;
49039;SDS011;36811;49.732;13.402;2022-11-20T14:41:18;63.45;;;32.92;;
49039;SDS011;36811;49.732;13.402;2022-11-20T14:43:51;60.30;;;28.65;;
49039;SDS011;36811;49.732;13.402;2022-11-20T14:46:22;72.10;;;33.33;;
49039;SDS011;36811;49.732;13.402;2022-11-20T14:48:49;51.00;;;27.73;;
49039;SDS011;36811;49.732;13.402;2022-11-20T14:51:31;45.85;;;24.05;;
49039;SDS011;36811;49.732;13.402;2022-11-20T14:54:19;59.05;;;29.27;;
49039;SDS011;36811;49.732;13.402;2022-11-20T14:56:54;56.45;;;24.55;;
49039;SDS011;36811;49.732;13.402;2022-11-20T14:59:24;43.50;;;20.63;;
49039;SDS011;36811;49.732;13.402;2022-11-20T15:01:58;50.40;;;26.30;;
49039;SDS011;36811;49.732;13.402;2022-11-20T15:04:30;49.50;;;23.65;;
49039;SDS011;36811;49.732;13.402;2022-11-20T15:06:56;47.40;;;23.25;;
49039;SDS011;36811;49.732;13.402;2022-11-20T15:09:24;46.58;;;21.02;;
49039;SDS011;36811;49.732;13.402;2022-11-20T15:12:02;39.38;;;19.92;;
49039;SDS011;36811;49.732;13.402;2022-11-20T15:14:29;39.25;;;18.98;;
49039;SDS011;36811;49.732;13.402;2022-11-20T15:16:57;40.60;;;18.52;;
49039;SDS011;36811;49.732;13.402;2022-11-20T15:19:25;36.40;;;16.83;;
49039;SDS011;36811;49.732;13.402;2022-11-20T15:21:52;31.42;;;16.27;;
49039;SDS011;36811;49.732;13.402;2022-11-20T15:24:18;34.88;;;16.52;;
49039;SDS011;36811;49.732;13.402;2022-11-20T15:26:44;36.38;;;16.90;;
49039;SDS011;36811;49.732;13.402;2022-11-20T15:29:11;34.13;;;16.42;;
49039;SDS011;36811;49.732;13.402;2022-11-20T15:31:39;34.45;;;16.42;;
49039;SDS011;36811;49.732;13.402;2022-11-20T15:34:11;21.92;;;12.40;;
49039;SDS011;36811;49.732;13.402;2022-11-20T15:36:39;28.50;;;14.70;;
49039;SDS011;36811;49.732;13.402;2022-11-20T15:39:06;22.83;;;11.63;;
49039;SDS011;36811;49.732;13.402;2022-11-20T15:41:34;20.52;;;11.75;;
49039;SDS011;36811;49.732;13.402;2022-11-20T15:44:01;25.15;;;13.63;;
49039;SDS011;36811;49.732;13.402;2022-11-20T15:46:28;21.25;;;12.05;;
49039;SDS011;36811;49.732;13.402;2022-11-20T15:49:02;21.70;;;11.43;;
49039;SDS011;36811;49.732;13.402;2022-11-20T15:51:29;19.65;;;10.88;;
49039;SDS011;36811;49.732;13.402;2022-11-20T15:53:58;18.48;;;10.63;;
49039;SDS011;36811;49.732;13.402;2022-11-20T15:56:24;19.88;;;12.38;;